createdAt,value
2023-03-12T00:00:14.145Z,8.85
2023-03-12T00:02:41.844Z,9.52
2023-03-12T00:05:10.259Z,11.82
2023-03-12T00:07:39.458Z,10.18
2023-03-12T00:10:08.014Z,9.80
2023-03-12T00:12:35.852Z,10.18
2023-03-12T00:15:03.568Z,11.02
2023-03-12T00:17:31.501Z,12.80
2023-03-12T00:19:59.363Z,9.45
2023-03-12T00:22:27.067Z,8.75
2023-03-12T00:24:57.500Z,9.20
2023-03-12T00:27:26.022Z,8.63
2023-03-12T00:29:53.680Z,8.18
2023-03-12T00:32:22.094Z,8.90
2023-03-12T00:34:51.871Z,10.88
2023-03-12T00:37:19.624Z,10.93
2023-03-12T00:39:47.281Z,10.50
2023-03-12T00:42:16.290Z,9.88
2023-03-12T00:44:44.488Z,9.43
2023-03-12T00:47:12.402Z,9.25
2023-03-12T00:49:40.304Z,10.38
2023-03-12T00:52:08.177Z,9.65
2023-03-12T00:54:35.873Z,9.93
2023-03-12T00:57:03.591Z,10.13
2023-03-12T00:59:32.990Z,9.70
2023-03-12T01:02:00.655Z,9.20
2023-03-12T01:04:28.451Z,9.98
2023-03-12T01:06:56.484Z,10.18
2023-03-12T01:09:24.124Z,9.95
2023-03-12T01:11:51.893Z,9.45
2023-03-12T01:14:19.564Z,10.85
2023-03-12T01:16:50.323Z,11.18
2023-03-12T01:19:19.681Z,12.00
2023-03-12T01:21:47.376Z,9.48
2023-03-12T01:24:15.052Z,10.75
2023-03-12T01:26:42.743Z,10.13
2023-03-12T01:29:10.428Z,10.07
2023-03-12T01:31:38.123Z,9.75
2023-03-12T01:34:07.162Z,9.30
2023-03-12T01:36:34.831Z,11.02
2023-03-12T01:39:02.613Z,15.05
2023-03-12T01:41:33.042Z,9.15
2023-03-12T01:44:02.763Z,10.23
2023-03-12T01:46:33.018Z,9.07
2023-03-12T01:49:05.340Z,9.85
2023-03-12T01:51:36.916Z,10.77
2023-03-12T01:54:09.158Z,10.00
2023-03-12T01:56:37.552Z,12.13
2023-03-12T01:59:09.060Z,11.52
2023-03-12T02:01:36.719Z,11.85
2023-03-12T02:04:04.614Z,11.70
2023-03-12T02:06:38.519Z,13.00
2023-03-12T02:09:07.303Z,12.25
2023-03-12T02:11:35.035Z,13.50
2023-03-12T02:14:03.024Z,12.75
2023-03-12T02:16:31.401Z,13.30
2023-03-12T02:19:01.844Z,14.85
2023-03-12T02:21:35.224Z,15.20
2023-03-12T02:24:09.564Z,13.80
2023-03-12T02:26:39.498Z,12.32
2023-03-12T02:29:08.490Z,13.98
2023-03-12T02:31:39.108Z,14.65
2023-03-12T02:34:07.438Z,14.00
2023-03-12T02:36:35.081Z,12.00
2023-03-12T02:39:02.850Z,13.38
2023-03-12T02:41:32.808Z,12.98
2023-03-12T02:44:06.470Z,11.88
2023-03-12T02:46:36.431Z,14.60
2023-03-12T02:49:04.440Z,11.50
2023-03-12T02:51:32.315Z,13.05
2023-03-12T02:53:59.908Z,11.95
2023-03-12T02:56:29.322Z,12.63
2023-03-12T02:58:57.055Z,11.73
2023-03-12T03:01:26.163Z,12.20
2023-03-12T03:03:54.550Z,12.07
2023-03-12T03:06:22.399Z,12.02
2023-03-12T03:08:50.015Z,11.68
2023-03-12T03:11:17.670Z,12.88
2023-03-12T03:13:45.281Z,11.98
2023-03-12T03:16:13.570Z,11.80
2023-03-12T03:18:42.703Z,13.23
2023-03-12T03:21:16.352Z,12.82
2023-03-12T03:23:44.665Z,21.20
2023-03-12T03:26:12.946Z,16.20
2023-03-12T03:28:40.684Z,16.88
2023-03-12T03:31:08.442Z,15.88
2023-03-12T03:33:37.975Z,12.73
2023-03-12T03:36:08.521Z,14.77
2023-03-12T03:38:36.395Z,14.50
2023-03-12T03:41:04.430Z,11.45
2023-03-12T03:43:32.152Z,13.85
2023-03-12T03:46:00.918Z,12.18
2023-03-12T03:48:28.973Z,11.45
2023-03-12T03:51:01.024Z,12.43
2023-03-12T03:55:57.496Z,14.00
2023-03-12T03:58:25.182Z,14.43
2023-03-12T04:00:52.784Z,11.32
2023-03-12T04:03:20.441Z,12.88
2023-03-12T04:05:48.180Z,14.88
2023-03-12T04:08:15.898Z,13.60
2023-03-12T04:10:44.960Z,12.63
2023-03-12T04:13:12.566Z,13.85
2023-03-12T04:15:40.188Z,15.70
2023-03-12T04:18:08.009Z,12.48
2023-03-12T04:20:35.640Z,13.77
2023-03-12T04:23:03.273Z,13.65
2023-03-12T04:25:31.589Z,12.32
2023-03-12T04:28:01.269Z,13.98
2023-03-12T04:30:28.998Z,15.82
2023-03-12T04:32:56.809Z,12.82
2023-03-12T04:35:25.027Z,11.73
2023-03-12T04:37:52.709Z,12.40
2023-03-12T04:40:20.475Z,12.73
2023-03-12T04:42:48.244Z,12.63
2023-03-12T04:45:17.377Z,13.85
2023-03-12T04:47:45.091Z,14.57
2023-03-12T04:50:13.719Z,11.00
2023-03-12T04:52:41.347Z,12.18
2023-03-12T04:55:09.929Z,12.48
2023-03-12T04:57:37.571Z,11.55
2023-03-12T05:00:11.049Z,12.00
2023-03-12T05:02:40.363Z,11.95
2023-03-12T05:05:09.181Z,16.40
2023-03-12T05:07:36.829Z,12.55
2023-03-12T05:10:05.163Z,13.27
2023-03-12T05:12:32.812Z,10.95
2023-03-12T05:15:00.437Z,12.00
2023-03-12T05:17:28.123Z,12.77
2023-03-12T05:19:57.180Z,10.82
2023-03-12T05:22:24.851Z,11.00
2023-03-12T05:24:52.487Z,11.20
2023-03-12T05:27:20.493Z,10.30
2023-03-12T05:29:48.244Z,9.27
2023-03-12T05:32:15.904Z,10.43
2023-03-12T05:34:43.645Z,9.55
2023-03-12T05:37:12.595Z,9.90
2023-03-12T05:39:46.609Z,9.30
2023-03-12T05:42:14.920Z,9.85
2023-03-12T05:44:42.710Z,9.85
2023-03-12T05:47:10.594Z,9.60
2023-03-12T05:49:38.193Z,11.07
2023-03-12T05:52:06.393Z,9.05
2023-03-12T05:54:35.373Z,8.32
2023-03-12T05:57:03.446Z,9.80
2023-03-12T05:59:31.201Z,9.75
2023-03-12T06:01:58.897Z,11.40
2023-03-12T06:04:26.524Z,8.85
2023-03-12T06:06:54.182Z,8.38
2023-03-12T06:09:21.817Z,8.95
2023-03-12T06:11:50.816Z,8.77
2023-03-12T06:14:18.441Z,9.80
2023-03-12T06:16:46.164Z,9.45
2023-03-12T06:19:14.839Z,10.73
2023-03-12T06:21:44.174Z,10.00
2023-03-12T06:24:11.806Z,8.63
2023-03-12T06:26:40.491Z,9.35
2023-03-12T06:29:09.493Z,10.93
2023-03-12T06:31:38.848Z,12.85
2023-03-12T06:34:06.866Z,12.88
2023-03-12T06:36:34.486Z,10.52
2023-03-12T06:39:02.113Z,9.30
2023-03-12T06:41:30.305Z,9.68
2023-03-12T06:43:59.082Z,9.38
2023-03-12T06:46:28.023Z,9.50
2023-03-12T06:48:55.778Z,9.35
2023-03-12T06:51:23.370Z,9.93
2023-03-12T06:53:51.009Z,9.45
2023-03-12T06:56:18.805Z,10.18
2023-03-12T06:58:46.420Z,9.70
2023-03-12T07:01:14.038Z,10.07
2023-03-12T07:03:43.012Z,11.32
2023-03-12T07:06:14.934Z,10.05
2023-03-12T07:08:43.007Z,9.15
2023-03-12T07:11:11.391Z,10.23
2023-03-12T07:13:39.203Z,10.05
2023-03-12T07:16:07.927Z,13.50
2023-03-12T07:18:35.638Z,11.55
2023-03-12T07:21:05.060Z,10.85
2023-03-12T07:23:32.691Z,12.70
2023-03-12T07:26:00.429Z,10.98
2023-03-12T07:28:28.030Z,13.27
2023-03-12T07:31:01.492Z,13.82
2023-03-12T07:33:29.397Z,11.50
2023-03-12T07:35:57.226Z,12.13
2023-03-12T07:38:26.594Z,11.35
2023-03-12T07:40:55.279Z,12.10
2023-03-12T07:43:23.146Z,11.75
2023-03-12T07:45:50.936Z,11.13
2023-03-12T07:48:19.829Z,11.02
2023-03-12T07:50:47.706Z,10.38
2023-03-12T07:53:15.487Z,11.82
2023-03-12T07:55:45.026Z,11.60
2023-03-12T07:58:13.851Z,11.32
2023-03-12T08:00:41.630Z,11.93
2023-03-12T08:03:09.505Z,12.25
2023-03-12T08:05:37.392Z,10.95
2023-03-12T08:08:05.089Z,10.30
2023-03-12T08:10:32.770Z,11.25
2023-03-12T08:13:01.953Z,10.80
2023-03-12T08:15:29.678Z,17.92
2023-03-12T08:17:57.361Z,13.57
2023-03-12T08:20:25.056Z,12.23
2023-03-12T08:22:52.929Z,9.70
2023-03-12T08:25:21.178Z,9.57
2023-03-12T08:27:48.833Z,9.82
2023-03-12T08:30:18.498Z,9.23
2023-03-12T08:32:46.139Z,10.57
2023-03-12T08:35:13.763Z,9.25
2023-03-12T08:37:41.456Z,11.55
2023-03-12T08:40:13.254Z,15.23
2023-03-12T08:42:41.343Z,9.07
2023-03-12T08:45:10.193Z,13.88
2023-03-12T08:47:41.614Z,11.02
2023-03-12T08:50:10.813Z,14.43
2023-03-12T08:52:38.437Z,9.90
2023-03-12T08:55:06.952Z,10.00
2023-03-12T08:57:34.592Z,8.82
2023-03-12T09:00:02.232Z,9.35
2023-03-12T09:02:29.835Z,9.48
2023-03-12T09:04:58.778Z,9.13
2023-03-12T09:07:26.383Z,8.90
2023-03-12T09:09:55.523Z,8.80
2023-03-12T09:12:23.504Z,9.70
2023-03-12T09:15:03.056Z,10.20
2023-03-12T09:17:31.688Z,9.57
2023-03-12T09:20:01.106Z,9.13
2023-03-12T09:22:30.309Z,8.93
2023-03-12T09:24:58.007Z,10.20
2023-03-12T09:27:25.857Z,9.13
2023-03-12T09:30:00.645Z,17.25
2023-03-12T09:32:28.970Z,12.45
2023-03-12T09:34:56.734Z,10.93
2023-03-12T09:37:25.899Z,10.00
2023-03-12T09:39:54.273Z,11.10
2023-03-12T09:42:25.235Z,11.50
2023-03-12T09:44:53.539Z,12.40
2023-03-12T09:47:27.471Z,12.60
2023-03-12T09:49:57.172Z,10.98
2023-03-12T09:52:29.623Z,17.75
2023-03-12T09:55:01.371Z,11.90
2023-03-12T09:57:29.966Z,10.82
2023-03-12T09:59:57.936Z,10.43
2023-03-12T10:02:46.642Z,9.10
2023-03-12T10:05:18.796Z,11.35
2023-03-12T10:10:47.082Z,15.90
2023-03-12T10:13:20.963Z,7.88
2023-03-12T10:15:58.007Z,8.55
2023-03-12T10:18:34.435Z,8.55
2023-03-12T10:21:11.569Z,8.10
2023-03-12T10:23:49.968Z,7.63
2023-03-12T10:26:20.275Z,8.50
2023-03-12T10:28:50.635Z,7.55
2023-03-12T10:31:22.087Z,7.82
2023-03-12T10:33:53.652Z,6.90
2023-03-12T10:36:23.147Z,7.75
2023-03-12T10:38:52.358Z,7.80
2023-03-12T10:41:22.577Z,8.45
2023-03-12T10:43:50.297Z,9.32
2023-03-12T10:46:36.711Z,9.95
2023-03-12T10:49:30.451Z,10.63
2023-03-12T10:52:00.493Z,9.77
2023-03-12T10:54:35.050Z,12.10
2023-03-12T10:57:02.733Z,10.93
2023-03-12T10:59:32.393Z,10.43
2023-03-12T11:02:00.973Z,10.93
2023-03-12T11:04:30.751Z,10.40
2023-03-12T11:07:20.380Z,10.70
2023-03-12T11:10:18.992Z,10.48
2023-03-12T11:13:05.697Z,9.77
2023-03-12T11:15:40.545Z,12.20
2023-03-12T11:18:27.361Z,11.95
2023-03-12T11:20:57.490Z,25.20
2023-03-12T11:23:29.241Z,22.92
2023-03-12T11:26:00.752Z,30.80
2023-03-12T11:28:37.421Z,12.93
2023-03-12T11:31:07.146Z,14.75
2023-03-12T11:33:35.190Z,11.65
2023-03-12T11:36:10.231Z,24.75
2023-03-12T11:38:41.369Z,12.70
2023-03-12T11:41:22.384Z,8.77
2023-03-12T11:44:01.632Z,13.10
2023-03-12T11:46:36.760Z,11.95
2023-03-12T11:49:13.150Z,12.40
2023-03-12T11:51:47.584Z,10.82
2023-03-12T11:54:26.955Z,11.70
2023-03-12T11:56:57.375Z,11.52
2023-03-12T11:59:39.601Z,15.93
2023-03-12T12:02:17.587Z,12.25
2023-03-12T12:05:06.986Z,12.30
2023-03-12T12:07:44.719Z,11.95
2023-03-12T12:10:21.759Z,11.85
2023-03-12T12:12:57.059Z,12.57
2023-03-12T12:15:32.724Z,10.73
2023-03-12T12:18:12.383Z,11.02
2023-03-12T12:20:45.225Z,10.30
2023-03-12T12:23:19.951Z,9.50
2023-03-12T12:25:56.689Z,9.45
2023-03-12T12:28:57.209Z,8.00
2023-03-12T12:31:33.423Z,8.35
2023-03-12T12:34:24.345Z,9.23
2023-03-12T12:36:55.949Z,10.90
2023-03-12T12:39:31.098Z,10.00
2023-03-12T12:42:03.521Z,8.93
2023-03-12T12:44:35.748Z,9.23
2023-03-12T12:49:37.575Z,9.23
2023-03-12T12:52:08.511Z,9.77
2023-03-12T12:54:48.619Z,8.63
2023-03-12T12:57:21.497Z,9.02
2023-03-12T13:00:04.924Z,8.55
2023-03-12T13:02:34.024Z,9.68
2023-03-12T13:05:02.691Z,9.50
2023-03-12T13:07:34.207Z,9.05
2023-03-12T13:10:08.020Z,9.32
2023-03-12T13:12:38.604Z,9.18
2023-03-12T13:15:35.330Z,9.85
2023-03-12T13:18:08.310Z,8.77
2023-03-12T13:20:43.239Z,9.20
2023-03-12T13:23:25.997Z,8.82
2023-03-12T13:25:59.131Z,9.93
2023-03-12T13:28:36.464Z,9.30
2023-03-12T13:31:39.037Z,9.85
2023-03-12T13:36:59.634Z,8.70
2023-03-12T13:39:32.026Z,9.68
2023-03-12T13:42:00.871Z,9.40
2023-03-12T13:44:39.299Z,9.18
2023-03-12T13:47:23.044Z,8.63
2023-03-12T13:49:55.274Z,9.50
2023-03-12T13:54:59.533Z,17.88
2023-03-12T13:57:39.123Z,8.93
2023-03-12T14:00:14.544Z,8.90
2023-03-12T14:02:46.969Z,9.15
2023-03-12T14:05:15.212Z,8.77
2023-03-12T14:08:10.885Z,8.93
2023-03-12T14:10:47.452Z,8.80
2023-03-12T14:13:26.346Z,9.55
2023-03-12T14:15:58.689Z,9.50
2023-03-12T14:18:29.577Z,8.70
2023-03-12T14:20:59.605Z,8.90
2023-03-12T14:23:31.600Z,9.50
2023-03-12T14:26:03.904Z,8.82
2023-03-12T14:28:33.886Z,9.35
2023-03-12T14:31:03.494Z,8.27
2023-03-12T14:33:36.416Z,8.40
2023-03-12T14:36:06.993Z,9.00
2023-03-12T14:38:37.711Z,8.52
2023-03-12T14:41:13.287Z,8.18
2023-03-12T14:43:41.941Z,8.90
2023-03-12T14:46:16.070Z,8.68
2023-03-12T14:48:47.788Z,8.18
2023-03-12T14:51:23.563Z,8.55
2023-03-12T14:53:52.661Z,8.65
2023-03-12T14:56:27.871Z,8.85
2023-03-12T14:58:55.783Z,9.15
2023-03-12T15:01:25.278Z,8.57
2023-03-12T15:03:56.926Z,8.63
2023-03-12T15:06:29.743Z,9.10
2023-03-12T15:08:58.008Z,8.80
2023-03-12T15:11:27.900Z,8.73
2023-03-12T15:13:57.278Z,9.10
2023-03-12T15:16:25.085Z,8.50
2023-03-12T15:18:54.317Z,8.38
2023-03-12T15:21:22.309Z,8.18
2023-03-12T15:23:50.992Z,8.65
2023-03-12T15:26:29.240Z,11.95
2023-03-12T15:28:58.361Z,9.23
2023-03-12T15:31:26.191Z,9.57
2023-03-12T15:34:05.766Z,8.20
2023-03-12T15:36:34.624Z,8.52
2023-03-12T15:39:05.600Z,8.50
2023-03-12T15:41:43.571Z,8.25
2023-03-12T15:44:19.737Z,8.68
2023-03-12T15:46:49.135Z,8.75
2023-03-12T15:49:24.404Z,8.95
2023-03-12T15:52:05.171Z,9.20
2023-03-12T15:54:35.186Z,8.73
2023-03-12T15:57:23.176Z,8.73
2023-03-12T16:00:16.307Z,8.55
2023-03-12T16:02:49.641Z,8.85
2023-03-12T16:05:19.947Z,8.82
2023-03-12T16:07:47.790Z,9.10
2023-03-12T16:10:16.979Z,8.43
2023-03-12T16:12:45.430Z,8.73
2023-03-12T16:15:18.557Z,8.85
2023-03-12T16:17:46.273Z,8.85
2023-03-12T16:20:17.485Z,10.98
2023-03-12T16:22:46.488Z,9.07
2023-03-12T16:25:14.190Z,9.65
2023-03-12T16:27:47.179Z,10.13
2023-03-12T16:30:17.769Z,9.75
2023-03-12T16:32:45.469Z,10.40
2023-03-12T16:35:15.516Z,9.38
2023-03-12T16:37:43.259Z,13.90
2023-03-12T16:40:16.327Z,10.95
2023-03-12T16:42:51.072Z,8.68
2023-03-12T16:45:19.638Z,9.93
2023-03-12T16:48:00.204Z,9.57
2023-03-12T16:50:28.553Z,11.68
2023-03-12T16:52:56.627Z,10.98
2023-03-12T16:55:28.732Z,11.32
2023-03-12T16:57:59.261Z,9.25
2023-03-12T17:00:29.432Z,9.90
2023-03-12T17:02:59.097Z,10.10
2023-03-12T17:05:27.565Z,9.88
2023-03-12T17:07:55.291Z,9.88
2023-03-12T17:10:24.960Z,9.75
2023-03-12T17:12:52.803Z,11.45
2023-03-12T17:15:23.887Z,10.13
2023-03-12T17:17:51.585Z,9.43
2023-03-12T17:20:21.556Z,9.48
2023-03-12T17:22:49.444Z,9.40
2023-03-12T17:25:22.056Z,9.60
2023-03-12T17:27:51.148Z,9.10
2023-03-12T17:30:18.974Z,9.35
2023-03-12T17:32:46.714Z,8.93
2023-03-12T17:35:14.724Z,8.50
2023-03-12T17:37:42.486Z,10.23
2023-03-12T17:40:11.371Z,9.10
2023-03-12T17:42:40.046Z,8.85
2023-03-12T17:45:10.844Z,9.18
2023-03-12T17:47:38.838Z,9.32
2023-03-12T17:50:07.676Z,10.40
2023-03-12T17:52:35.683Z,9.80
2023-03-12T17:55:03.493Z,9.20
2023-03-12T17:57:31.298Z,10.93
2023-03-12T17:59:59.071Z,9.63
2023-03-12T18:02:28.236Z,9.60
2023-03-12T18:04:55.939Z,9.32
2023-03-12T18:07:23.693Z,10.23
2023-03-12T18:09:51.621Z,9.35
2023-03-12T18:12:19.400Z,9.90
2023-03-12T18:14:47.179Z,9.80
2023-03-12T18:17:14.855Z,9.32
2023-03-12T18:19:43.990Z,9.68
2023-03-12T18:22:14.132Z,10.05
2023-03-12T18:24:41.807Z,10.13
2023-03-12T18:27:09.794Z,9.63
2023-03-12T18:29:37.479Z,10.30
2023-03-12T18:32:05.512Z,9.65
2023-03-12T18:34:33.175Z,9.73
2023-03-12T18:37:02.177Z,8.95
2023-03-12T18:39:29.872Z,9.15
2023-03-12T18:41:57.425Z,9.30
2023-03-12T18:44:25.124Z,10.13
2023-03-12T18:46:53.912Z,11.82
2023-03-12T18:49:21.821Z,9.35
2023-03-12T18:51:53.397Z,9.52
2023-03-12T18:54:24.574Z,10.15
2023-03-12T18:56:52.477Z,18.38
2023-03-12T18:59:20.121Z,14.48
2023-03-12T19:01:47.780Z,22.35
2023-03-12T19:04:18.038Z,11.40
2023-03-12T19:06:51.228Z,16.58
2023-03-12T19:09:19.712Z,11.82
2023-03-12T19:11:49.192Z,12.07
2023-03-12T19:14:16.842Z,9.23
2023-03-12T19:16:44.562Z,13.55
2023-03-12T19:19:12.502Z,10.98
2023-03-12T19:21:40.228Z,14.65
2023-03-12T19:24:07.947Z,12.27
2023-03-12T19:26:35.620Z,19.98
2023-03-12T19:29:04.623Z,22.90
2023-03-12T19:31:32.346Z,30.27
2023-03-12T19:34:00.172Z,48.70
2023-03-12T19:36:28.215Z,58.75
2023-03-12T19:38:56.236Z,72.07
2023-03-12T19:41:24.228Z,124.55
2023-03-12T19:44:53.048Z,66.38
2023-03-12T19:47:22.280Z,21.48
2023-03-12T19:49:49.981Z,15.73
2023-03-12T19:52:19.301Z,14.23
2023-03-12T19:54:54.670Z,15.75
2023-03-12T19:57:30.753Z,13.38
2023-03-12T20:00:00.198Z,10.45
2023-03-12T20:02:27.992Z,11.07
2023-03-12T20:04:55.849Z,9.65
2023-03-12T20:07:23.990Z,10.13
2023-03-12T20:09:52.456Z,9.52
2023-03-12T20:12:20.055Z,11.35
2023-03-12T20:14:47.914Z,14.20
2023-03-12T20:17:17.120Z,11.40
2023-03-12T20:19:44.778Z,14.52
2023-03-12T20:22:12.572Z,10.70
2023-03-12T20:24:40.250Z,10.05
2023-03-12T20:27:08.141Z,9.85
2023-03-12T20:29:35.827Z,10.57
2023-03-12T20:32:03.631Z,9.32
2023-03-12T20:34:32.646Z,9.68
2023-03-12T20:37:00.268Z,8.75
2023-03-12T20:39:28.135Z,8.48
2023-03-12T20:41:55.846Z,8.95
2023-03-12T20:44:23.850Z,9.95
2023-03-12T20:46:51.569Z,10.25
2023-03-12T20:49:19.442Z,10.90
2023-03-12T20:51:48.543Z,12.18
2023-03-12T20:54:16.200Z,9.90
2023-03-12T20:56:44.838Z,12.23
2023-03-12T20:59:12.611Z,9.30
2023-03-12T21:01:40.393Z,8.45
2023-03-12T21:04:08.188Z,8.88
2023-03-12T21:06:35.871Z,7.95
2023-03-12T21:09:05.074Z,8.48
2023-03-12T21:11:32.711Z,9.00
2023-03-12T21:14:00.379Z,9.32
2023-03-12T21:16:28.311Z,8.23
2023-03-12T21:18:57.054Z,8.90
2023-03-12T21:21:25.076Z,9.27
2023-03-12T21:23:52.831Z,9.15
2023-03-12T21:26:21.988Z,8.80
2023-03-12T21:28:49.779Z,9.63
2023-03-12T21:31:18.458Z,8.45
2023-03-12T21:33:46.317Z,8.43
2023-03-12T21:36:15.315Z,9.70
2023-03-12T21:38:43.774Z,8.55
2023-03-12T21:41:13.182Z,10.57
2023-03-12T21:43:42.796Z,19.00
2023-03-12T21:46:11.787Z,19.20
2023-03-12T21:48:40.064Z,20.63
2023-03-12T21:51:09.749Z,13.07
2023-03-12T21:53:37.847Z,21.30
2023-03-12T21:56:06.916Z,8.73
2023-03-12T21:58:35.420Z,9.50
2023-03-12T22:01:05.675Z,8.27
2023-03-12T22:03:33.497Z,8.50
2023-03-12T22:06:01.247Z,8.70
2023-03-12T22:08:28.952Z,9.80
2023-03-12T22:10:56.596Z,7.78
2023-03-12T22:13:24.653Z,9.25
2023-03-12T22:15:54.958Z,8.50
2023-03-12T22:18:24.323Z,8.63
2023-03-12T22:20:52.914Z,8.10
2023-03-12T22:23:20.948Z,8.02
2023-03-12T22:25:48.756Z,8.43
2023-03-12T22:28:16.977Z,9.57
2023-03-12T22:30:44.993Z,8.50
2023-03-12T22:33:13.047Z,8.20
2023-03-12T22:35:45.849Z,11.82
2023-03-12T22:38:14.008Z,9.20
2023-03-12T22:40:42.123Z,8.70
2023-03-12T22:43:09.790Z,11.30
2023-03-12T22:45:37.585Z,9.10
2023-03-12T22:48:05.500Z,8.90
2023-03-12T22:50:33.599Z,10.10
2023-03-12T22:53:02.859Z,8.63
2023-03-12T22:55:30.581Z,8.68
2023-03-12T22:57:58.189Z,8.90
2023-03-12T23:00:26.668Z,8.20
2023-03-12T23:02:54.339Z,8.63
2023-03-12T23:05:22.076Z,8.55
2023-03-12T23:07:50.117Z,8.32
2023-03-12T23:10:19.984Z,7.95
2023-03-12T23:12:47.638Z,8.55
2023-03-12T23:15:15.232Z,9.15
2023-03-12T23:17:42.986Z,9.20
2023-03-12T23:20:13.466Z,9.50
2023-03-12T23:22:41.098Z,11.00
2023-03-12T23:25:09.631Z,9.93
2023-03-12T23:27:38.660Z,9.77
2023-03-12T23:30:07.542Z,9.52
2023-03-12T23:32:35.877Z,8.57
2023-03-12T23:35:03.564Z,9.48
2023-03-12T23:37:31.471Z,8.75
2023-03-12T23:39:59.133Z,8.52
2023-03-12T23:42:27.807Z,9.50
2023-03-12T23:44:56.920Z,9.05
2023-03-12T23:47:24.714Z,8.57
2023-03-12T23:49:52.415Z,8.68
2023-03-12T23:52:20.137Z,7.75
2023-03-12T23:54:47.928Z,9.00
2023-03-12T23:57:15.568Z,8.75
2023-03-12T23:59:43.309Z,8.75
